Kirtley, Wyoming
Current Conditions -  °F | °C
As of 3:15 PM on Thursday 23 Oct 2014 (Local Time) from KGUR Reporting Station
Clear Clear  
Wind Chill: 81°   Ceiling: Unl
Heat Index: 81°   Visibility: 10mi
Dew Point: 29°   Wind: 16mph
Humidity: 15%   Direction: 250°WSW
Pressure: 30"   Gusts: 22mph
Location:  42.8183°N, 104.414°W
Report Text: KGUR 232115Z AUTO 25014G19KT 10SM CLR 27/M01 A3000 RMK AO2 T02741014
Loading
Personal Weather Stations






























Interactive Weather Map
Tropical Storm Tracking
New forecast layout! Learn more

10-Day Weather Forecast

Advertisements
Track Severe Weather on mobile